sensor_id;sensor_type;location;lat;lon;timestamp;P1;durP1;ratioP1;P2;durP2;ratioP2
64986;SDS011;51532;52.108;9.360;2022-08-05T00:01:16;6.38;;;2.80;;
64986;SDS011;51532;52.108;9.360;2022-08-05T00:04:12;3.58;;;2.50;;
64986;SDS011;51532;52.108;9.360;2022-08-05T00:06:58;4.07;;;2.47;;
64986;SDS011;51532;52.108;9.360;2022-08-05T00:09:43;3.58;;;2.17;;
64986;SDS011;51532;52.108;9.360;2022-08-05T00:12:29;5.30;;;2.40;;
64986;SDS011;51532;52.108;9.360;2022-08-05T00:15:15;4.72;;;2.90;;
64986;SDS011;51532;52.108;9.360;2022-08-05T00:18:20;4.25;;;2.78;;
64986;SDS011;51532;52.108;9.360;2022-08-05T00:21:06;3.80;;;2.50;;
64986;SDS011;51532;52.108;9.360;2022-08-05T00:23:52;4.25;;;2.67;;
64986;SDS011;51532;52.108;9.360;2022-08-05T00:26:54;3.38;;;2.88;;
64986;SDS011;51532;52.108;9.360;2022-08-05T00:29:40;5.82;;;2.80;;
64986;SDS011;51532;52.108;9.360;2022-08-05T00:32:25;3.40;;;2.75;;
64986;SDS011;51532;52.108;9.360;2022-08-05T00:35:11;3.97;;;2.72;;
64986;SDS011;51532;52.108;9.360;2022-08-05T00:37:56;4.25;;;2.67;;
64986;SDS011;51532;52.108;9.360;2022-08-05T00:40:49;6.03;;;2.60;;
64986;SDS011;51532;52.108;9.360;2022-08-05T00:43:37;5.38;;;2.75;;
64986;SDS011;51532;52.108;9.360;2022-08-05T00:46:33;5.05;;;3.00;;
64986;SDS011;51532;52.108;9.360;2022-08-05T00:49:27;3.72;;;2.97;;
64986;SDS011;51532;52.108;9.360;2022-08-05T00:52:28;3.55;;;2.90;;
64986;SDS011;51532;52.108;9.360;2022-08-05T00:55:15;6.63;;;4.00;;
64986;SDS011;51532;52.108;9.360;2022-08-05T00:58:03;7.68;;;4.40;;
64986;SDS011;51532;52.108;9.360;2022-08-05T01:00:48;8.38;;;4.53;;
64986;SDS011;51532;52.108;9.360;2022-08-05T01:03:34;9.02;;;4.97;;
64986;SDS011;51532;52.108;9.360;2022-08-05T01:06:19;7.63;;;4.88;;
64986;SDS011;51532;52.108;9.360;2022-08-05T01:09:16;8.45;;;5.05;;
64986;SDS011;51532;52.108;9.360;2022-08-05T01:12:11;10.43;;;5.45;;
64986;SDS011;51532;52.108;9.360;2022-08-05T01:15:03;5.43;;;4.88;;
64986;SDS011;51532;52.108;9.360;2022-08-05T01:18:15;8.98;;;4.72;;
64986;SDS011;51532;52.108;9.360;2022-08-05T01:21:15;8.52;;;4.72;;
64986;SDS011;51532;52.108;9.360;2022-08-05T01:24:25;5.82;;;4.43;;
64986;SDS011;51532;52.108;9.360;2022-08-05T01:30:50;6.95;;;4.32;;
64986;SDS011;51532;52.108;9.360;2022-08-05T01:33:45;7.43;;;4.22;;
64986;SDS011;51532;52.108;9.360;2022-08-05T01:36:41;6.15;;;4.10;;
64986;SDS011;51532;52.108;9.360;2022-08-05T01:39:31;9.05;;;4.43;;
64986;SDS011;51532;52.108;9.360;2022-08-05T01:42:31;7.00;;;4.22;;
64986;SDS011;51532;52.108;9.360;2022-08-05T01:45:18;6.95;;;4.72;;
64986;SDS011;51532;52.108;9.360;2022-08-05T01:48:05;6.13;;;4.68;;
64986;SDS011;51532;52.108;9.360;2022-08-05T01:50:54;9.75;;;4.88;;
64986;SDS011;51532;52.108;9.360;2022-08-05T01:53:44;9.32;;;5.63;;
64986;SDS011;51532;52.108;9.360;2022-08-05T01:56:42;10.05;;;5.13;;
64986;SDS011;51532;52.108;9.360;2022-08-05T01:59:49;8.68;;;5.25;;
64986;SDS011;51532;52.108;9.360;2022-08-05T02:02:37;8.07;;;6.20;;
64986;SDS011;51532;52.108;9.360;2022-08-05T02:05:38;10.25;;;5.97;;
64986;SDS011;51532;52.108;9.360;2022-08-05T02:08:26;8.88;;;5.55;;
64986;SDS011;51532;52.108;9.360;2022-08-05T02:11:15;10.25;;;6.45;;
64986;SDS011;51532;52.108;9.360;2022-08-05T02:14:19;8.32;;;5.90;;
64986;SDS011;51532;52.108;9.360;2022-08-05T02:17:15;10.27;;;6.40;;
64986;SDS011;51532;52.108;9.360;2022-08-05T02:20:46;9.65;;;6.43;;
64986;SDS011;51532;52.108;9.360;2022-08-05T02:23:36;10.18;;;6.78;;
64986;SDS011;51532;52.108;9.360;2022-08-05T02:26:27;9.15;;;6.88;;
64986;SDS011;51532;52.108;9.360;2022-08-05T02:29:39;11.85;;;6.85;;
64986;SDS011;51532;52.108;9.360;2022-08-05T02:32:45;6.97;;;6.13;;
64986;SDS011;51532;52.108;9.360;2022-08-05T02:35:34;10.13;;;7.15;;
64986;SDS011;51532;52.108;9.360;2022-08-05T02:38:34;9.98;;;6.90;;
64986;SDS011;51532;52.108;9.360;2022-08-05T02:41:22;10.18;;;6.82;;
64986;SDS011;51532;52.108;9.360;2022-08-05T02:44:27;11.23;;;8.20;;
64986;SDS011;51532;52.108;9.360;2022-08-05T02:47:15;12.15;;;8.20;;
64986;SDS011;51532;52.108;9.360;2022-08-05T02:50:03;12.68;;;9.18;;
64986;SDS011;51532;52.108;9.360;2022-08-05T02:52:50;14.82;;;9.70;;
64986;SDS011;51532;52.108;9.360;2022-08-05T02:55:37;14.82;;;10.60;;
64986;SDS011;51532;52.108;9.360;2022-08-05T02:58:38;17.58;;;11.77;;
64986;SDS011;51532;52.108;9.360;2022-08-05T03:01:27;16.30;;;11.50;;
64986;SDS011;51532;52.108;9.360;2022-08-05T03:04:15;20.70;;;12.30;;
64986;SDS011;51532;52.108;9.360;2022-08-05T03:07:07;16.60;;;12.35;;
64986;SDS011;51532;52.108;9.360;2022-08-05T03:10:13;18.67;;;12.32;;
64986;SDS011;51532;52.108;9.360;2022-08-05T03:13:14;16.88;;;11.73;;
64986;SDS011;51532;52.108;9.360;2022-08-05T03:16:01;17.80;;;13.18;;
64986;SDS011;51532;52.108;9.360;2022-08-05T03:18:47;16.48;;;12.73;;
64986;SDS011;51532;52.108;9.360;2022-08-05T03:21:33;20.08;;;13.02;;
64986;SDS011;51532;52.108;9.360;2022-08-05T03:24:32;16.45;;;13.02;;
64986;SDS011;51532;52.108;9.360;2022-08-05T03:27:19;21.00;;;13.65;;
64986;SDS011;51532;52.108;9.360;2022-08-05T03:30:06;20.77;;;12.55;;
64986;SDS011;51532;52.108;9.360;2022-08-05T03:32:53;17.38;;;12.40;;
64986;SDS011;51532;52.108;9.360;2022-08-05T03:35:38;16.85;;;12.13;;
64986;SDS011;51532;52.108;9.360;2022-08-05T03:38:25;22.85;;;12.27;;
64986;SDS011;51532;52.108;9.360;2022-08-05T03:41:17;14.07;;;10.82;;
64986;SDS011;51532;52.108;9.360;2022-08-05T03:44:07;14.68;;;10.98;;
64986;SDS011;51532;52.108;9.360;2022-08-05T03:46:55;12.02;;;9.07;;
64986;SDS011;51532;52.108;9.360;2022-08-05T03:49:41;11.00;;;8.45;;
64986;SDS011;51532;52.108;9.360;2022-08-05T03:52:58;10.85;;;9.32;;
64986;SDS011;51532;52.108;9.360;2022-08-05T03:56:11;12.57;;;8.32;;
64986;SDS011;51532;52.108;9.360;2022-08-05T03:59:20;12.60;;;7.72;;
64986;SDS011;51532;52.108;9.360;2022-08-05T04:02:13;10.50;;;8.30;;
64986;SDS011;51532;52.108;9.360;2022-08-05T04:05:20;12.40;;;8.27;;
64986;SDS011;51532;52.108;9.360;2022-08-05T04:08:08;15.93;;;8.57;;
64986;SDS011;51532;52.108;9.360;2022-08-05T04:11:14;12.68;;;7.68;;
64986;SDS011;51532;52.108;9.360;2022-08-05T04:14:03;9.80;;;7.38;;
64986;SDS011;51532;52.108;9.360;2022-08-05T04:16:51;8.05;;;6.60;;
64986;SDS011;51532;52.108;9.360;2022-08-05T04:19:42;8.95;;;7.10;;
64986;SDS011;51532;52.108;9.360;2022-08-05T04:22:34;9.68;;;6.65;;
64986;SDS011;51532;52.108;9.360;2022-08-05T04:25:20;9.30;;;6.07;;
64986;SDS011;51532;52.108;9.360;2022-08-05T04:28:26;8.38;;;6.72;;
64986;SDS011;51532;52.108;9.360;2022-08-05T04:31:15;11.30;;;6.60;;
64986;SDS011;51532;52.108;9.360;2022-08-05T04:34:02;7.65;;;6.55;;
64986;SDS011;51532;52.108;9.360;2022-08-05T04:37:07;9.98;;;6.72;;
64986;SDS011;51532;52.108;9.360;2022-08-05T04:39:53;8.48;;;6.38;;
64986;SDS011;51532;52.108;9.360;2022-08-05T04:42:40;13.55;;;8.77;;
64986;SDS011;51532;52.108;9.360;2022-08-05T04:45:26;10.23;;;9.23;;
64986;SDS011;51532;52.108;9.360;2022-08-05T04:48:31;12.13;;;10.73;;
64986;SDS011;51532;52.108;9.360;2022-08-05T04:51:16;16.27;;;11.90;;
64986;SDS011;51532;52.108;9.360;2022-08-05T04:54:07;17.48;;;14.18;;
64986;SDS011;51532;52.108;9.360;2022-08-05T04:56:53;16.45;;;14.15;;
64986;SDS011;51532;52.108;9.360;2022-08-05T04:59:43;20.45;;;15.00;;
64986;SDS011;51532;52.108;9.360;2022-08-05T05:02:31;22.77;;;16.63;;
64986;SDS011;51532;52.108;9.360;2022-08-05T05:05:21;21.90;;;16.65;;
64986;SDS011;51532;52.108;9.360;2022-08-05T05:08:12;21.58;;;17.60;;
64986;SDS011;51532;52.108;9.360;2022-08-05T05:11:14;22.95;;;18.45;;
64986;SDS011;51532;52.108;9.360;2022-08-05T05:14:00;21.83;;;19.13;;
64986;SDS011;51532;52.108;9.360;2022-08-05T05:16:47;20.95;;;17.45;;
64986;SDS011;51532;52.108;9.360;2022-08-05T05:19:34;22.27;;;18.23;;
64986;SDS011;51532;52.108;9.360;2022-08-05T05:22:28;21.30;;;18.13;;
64986;SDS011;51532;52.108;9.360;2022-08-05T05:25:14;20.70;;;16.73;;
64986;SDS011;51532;52.108;9.360;2022-08-05T05:28:01;19.90;;;17.13;;
64986;SDS011;51532;52.108;9.360;2022-08-05T05:30:47;21.95;;;17.58;;
64986;SDS011;51532;52.108;9.360;2022-08-05T05:33:34;20.83;;;17.42;;
64986;SDS011;51532;52.108;9.360;2022-08-05T05:36:39;24.38;;;17.55;;
64986;SDS011;51532;52.108;9.360;2022-08-05T05:39:24;20.05;;;17.10;;
64986;SDS011;51532;52.108;9.360;2022-08-05T05:42:18;47.45;;;22.15;;
64986;SDS011;51532;52.108;9.360;2022-08-05T05:45:05;47.35;;;22.77;;
64986;SDS011;51532;52.108;9.360;2022-08-05T05:47:51;32.72;;;22.25;;
64986;SDS011;51532;52.108;9.360;2022-08-05T05:50:51;36.00;;;24.95;;
64986;SDS011;51532;52.108;9.360;2022-08-05T05:53:36;51.40;;;38.30;;
64986;SDS011;51532;52.108;9.360;2022-08-05T05:56:42;50.53;;;32.30;;
64986;SDS011;51532;52.108;9.360;2022-08-05T05:59:27;51.60;;;31.63;;
64986;SDS011;51532;52.108;9.360;2022-08-05T06:02:24;51.30;;;33.33;;
64986;SDS011;51532;52.108;9.360;2022-08-05T06:05:21;47.60;;;30.83;;
64986;SDS011;51532;52.108;9.360;2022-08-05T06:08:07;51.20;;;35.40;;
64986;SDS011;51532;52.108;9.360;2022-08-05T06:10:54;42.30;;;29.15;;
64986;SDS011;51532;52.108;9.360;2022-08-05T06:13:40;49.03;;;32.28;;
64986;SDS011;51532;52.108;9.360;2022-08-05T06:16:37;52.40;;;33.83;;
64986;SDS011;51532;52.108;9.360;2022-08-05T06:19:23;41.92;;;31.92;;
64986;SDS011;51532;52.108;9.360;2022-08-05T06:22:22;50.60;;;32.85;;
64986;SDS011;51532;52.108;9.360;2022-08-05T06:25:10;36.78;;;25.73;;
64986;SDS011;51532;52.108;9.360;2022-08-05T06:28:16;33.55;;;26.95;;
64986;SDS011;51532;52.108;9.360;2022-08-05T06:31:05;38.67;;;25.70;;
64986;SDS011;51532;52.108;9.360;2022-08-05T06:34:03;49.63;;;34.63;;
64986;SDS011;51532;52.108;9.360;2022-08-05T06:36:53;48.67;;;32.70;;
64986;SDS011;51532;52.108;9.360;2022-08-05T06:39:42;38.88;;;26.05;;
64986;SDS011;51532;52.108;9.360;2022-08-05T06:42:28;26.45;;;22.05;;
64986;SDS011;51532;52.108;9.360;2022-08-05T06:45:13;28.73;;;21.83;;
64986;SDS011;51532;52.108;9.360;2022-08-05T06:48:05;30.23;;;22.92;;
64986;SDS011;51532;52.108;9.360;2022-08-05T06:51:11;26.83;;;21.98;;
64986;SDS011;51532;52.108;9.360;2022-08-05T06:54:12;18.70;;;15.73;;
64986;SDS011;51532;52.108;9.360;2022-08-05T06:57:03;19.73;;;14.77;;
64986;SDS011;51532;52.108;9.360;2022-08-05T07:00:08;17.80;;;15.85;;
64986;SDS011;51532;52.108;9.360;2022-08-05T07:02:56;17.67;;;13.65;;
64986;SDS011;51532;52.108;9.360;2022-08-05T07:05:41;15.30;;;13.70;;
64986;SDS011;51532;52.108;9.360;2022-08-05T07:08:30;13.90;;;12.40;;
64986;SDS011;51532;52.108;9.360;2022-08-05T07:11:16;10.80;;;9.23;;
64986;SDS011;51532;52.108;9.360;2022-08-05T07:14:08;13.98;;;11.85;;
64986;SDS011;51532;52.108;9.360;2022-08-05T07:17:17;16.70;;;14.50;;
64986;SDS011;51532;52.108;9.360;2022-08-05T07:20:23;18.88;;;16.33;;
64986;SDS011;51532;52.108;9.360;2022-08-05T07:23:18;25.52;;;19.33;;
64986;SDS011;51532;52.108;9.360;2022-08-05T07:26:12;22.27;;;18.70;;
64986;SDS011;51532;52.108;9.360;2022-08-05T07:29:04;23.05;;;20.40;;
64986;SDS011;51532;52.108;9.360;2022-08-05T07:31:49;28.73;;;22.02;;
64986;SDS011;51532;52.108;9.360;2022-08-05T07:34:38;27.63;;;22.67;;
64986;SDS011;51532;52.108;9.360;2022-08-05T07:37:26;27.88;;;23.75;;
64986;SDS011;51532;52.108;9.360;2022-08-05T07:40:20;30.13;;;24.45;;
64986;SDS011;51532;52.108;9.360;2022-08-05T07:43:17;29.58;;;24.90;;
64986;SDS011;51532;52.108;9.360;2022-08-05T07:46:05;28.70;;;23.50;;
64986;SDS011;51532;52.108;9.360;2022-08-05T07:49:08;28.15;;;21.63;;
64986;SDS011;51532;52.108;9.360;2022-08-05T07:51:54;24.83;;;19.50;;
64986;SDS011;51532;52.108;9.360;2022-08-05T07:54:39;27.83;;;23.95;;
64986;SDS011;51532;52.108;9.360;2022-08-05T07:57:33;27.63;;;23.63;;
64986;SDS011;51532;52.108;9.360;2022-08-05T08:00:39;24.25;;;21.17;;
64986;SDS011;51532;52.108;9.360;2022-08-05T08:03:24;17.13;;;15.43;;
64986;SDS011;51532;52.108;9.360;2022-08-05T08:06:29;14.30;;;12.15;;
64986;SDS011;51532;52.108;9.360;2022-08-05T08:09:15;10.88;;;9.85;;
64986;SDS011;51532;52.108;9.360;2022-08-05T08:12:03;13.10;;;11.35;;
64986;SDS011;51532;52.108;9.360;2022-08-05T08:15:09;10.45;;;9.35;;
64986;SDS011;51532;52.108;9.360;2022-08-05T08:18:00;10.23;;;9.05;;
64986;SDS011;51532;52.108;9.360;2022-08-05T08:20:46;10.13;;;8.60;;
64986;SDS011;51532;52.108;9.360;2022-08-05T08:23:47;9.07;;;7.95;;
64986;SDS011;51532;52.108;9.360;2022-08-05T08:26:48;10.23;;;8.02;;
64986;SDS011;51532;52.108;9.360;2022-08-05T08:29:36;9.90;;;8.90;;
64986;SDS011;51532;52.108;9.360;2022-08-05T08:32:41;8.68;;;7.55;;
64986;SDS011;51532;52.108;9.360;2022-08-05T08:35:27;9.13;;;6.97;;
64986;SDS011;51532;52.108;9.360;2022-08-05T08:38:18;9.57;;;7.47;;
64986;SDS011;51532;52.108;9.360;2022-08-05T08:41:21;8.48;;;7.68;;
64986;SDS011;51532;52.108;9.360;2022-08-05T08:44:10;9.07;;;8.10;;
64986;SDS011;51532;52.108;9.360;2022-08-05T08:47:18;9.13;;;7.85;;
64986;SDS011;51532;52.108;9.360;2022-08-05T08:50:28;9.00;;;8.10;;
64986;SDS011;51532;52.108;9.360;2022-08-05T08:53:36;9.50;;;8.60;;
64986;SDS011;51532;52.108;9.360;2022-08-05T08:56:29;11.50;;;7.72;;
64986;SDS011;51532;52.108;9.360;2022-08-05T08:59:18;8.27;;;7.43;;
64986;SDS011;51532;52.108;9.360;2022-08-05T09:02:05;9.65;;;7.53;;
64986;SDS011;51532;52.108;9.360;2022-08-05T09:04:52;7.65;;;6.75;;
64986;SDS011;51532;52.108;9.360;2022-08-05T09:07:58;8.45;;;7.45;;
64986;SDS011;51532;52.108;9.360;2022-08-05T09:10:43;8.50;;;7.65;;
64986;SDS011;51532;52.108;9.360;2022-08-05T09:13:30;9.20;;;7.93;;
64986;SDS011;51532;52.108;9.360;2022-08-05T09:16:37;8.82;;;7.72;;
64986;SDS011;51532;52.108;9.360;2022-08-05T09:19:32;9.90;;;7.80;;
64986;SDS011;51532;52.108;9.360;2022-08-05T09:26:11;7.35;;;6.57;;
64986;SDS011;51532;52.108;9.360;2022-08-05T09:29:06;7.28;;;6.03;;
64986;SDS011;51532;52.108;9.360;2022-08-05T09:31:59;8.80;;;7.05;;
64986;SDS011;51532;52.108;9.360;2022-08-05T09:35:12;7.50;;;6.20;;
64986;SDS011;51532;52.108;9.360;2022-08-05T09:38:11;6.78;;;6.07;;
64986;SDS011;51532;52.108;9.360;2022-08-05T09:41:11;7.50;;;6.50;;
64986;SDS011;51532;52.108;9.360;2022-08-05T09:44:00;6.88;;;5.90;;
64986;SDS011;51532;52.108;9.360;2022-08-05T09:46:45;6.50;;;5.90;;
64986;SDS011;51532;52.108;9.360;2022-08-05T09:52:46;7.07;;;5.25;;
64986;SDS011;51532;52.108;9.360;2022-08-05T09:55:41;5.38;;;4.88;;
64986;SDS011;51532;52.108;9.360;2022-08-05T09:58:57;5.72;;;4.80;;
64986;SDS011;51532;52.108;9.360;2022-08-05T10:01:47;5.80;;;4.72;;
64986;SDS011;51532;52.108;9.360;2022-08-05T10:04:42;5.10;;;4.50;;
64986;SDS011;51532;52.108;9.360;2022-08-05T10:10:58;8.20;;;4.53;;
64986;SDS011;51532;52.108;9.360;2022-08-05T10:13:46;4.75;;;4.18;;
64986;SDS011;51532;52.108;9.360;2022-08-05T10:16:34;5.30;;;4.22;;
64986;SDS011;51532;52.108;9.360;2022-08-05T10:19:25;4.47;;;3.50;;
64986;SDS011;51532;52.108;9.360;2022-08-05T10:22:31;4.60;;;3.90;;
64986;SDS011;51532;52.108;9.360;2022-08-05T10:25:22;4.40;;;3.35;;
64986;SDS011;51532;52.108;9.360;2022-08-05T10:28:08;5.63;;;3.28;;
64986;SDS011;51532;52.108;9.360;2022-08-05T10:31:03;5.18;;;3.60;;
64986;SDS011;51532;52.108;9.360;2022-08-05T10:34:09;5.18;;;3.45;;
64986;SDS011;51532;52.108;9.360;2022-08-05T10:36:54;4.32;;;3.05;;
64986;SDS011;51532;52.108;9.360;2022-08-05T10:39:39;4.78;;;3.50;;
64986;SDS011;51532;52.108;9.360;2022-08-05T10:42:49;5.15;;;3.25;;
64986;SDS011;51532;52.108;9.360;2022-08-05T10:45:39;5.78;;;2.90;;
64986;SDS011;51532;52.108;9.360;2022-08-05T10:48:27;6.15;;;3.53;;
64986;SDS011;51532;52.108;9.360;2022-08-05T10:51:22;3.95;;;3.47;;
64986;SDS011;51532;52.108;9.360;2022-08-05T10:54:14;3.83;;;3.38;;
64986;SDS011;51532;52.108;9.360;2022-08-05T10:57:24;5.68;;;3.67;;
64986;SDS011;51532;52.108;9.360;2022-08-05T11:00:18;7.72;;;3.53;;
64986;SDS011;51532;52.108;9.360;2022-08-05T11:03:08;4.97;;;3.50;;
64986;SDS011;51532;52.108;9.360;2022-08-05T11:06:11;4.30;;;2.97;;
64986;SDS011;51532;52.108;9.360;2022-08-05T11:09:18;5.00;;;3.45;;
64986;SDS011;51532;52.108;9.360;2022-08-05T11:21:32;4.82;;;3.05;;
64986;SDS011;51532;52.108;9.360;2022-08-05T11:24:32;9.45;;;7.80;;
64986;SDS011;51532;52.108;9.360;2022-08-05T11:27:28;4.50;;;2.97;;
64986;SDS011;51532;52.108;9.360;2022-08-05T11:39:46;4.88;;;3.25;;
64986;SDS011;51532;52.108;9.360;2022-08-05T11:42:47;3.58;;;2.90;;
64986;SDS011;51532;52.108;9.360;2022-08-05T11:45:45;3.30;;;3.00;;
64986;SDS011;51532;52.108;9.360;2022-08-05T11:48:51;5.38;;;4.03;;
64986;SDS011;51532;52.108;9.360;2022-08-05T11:51:39;5.07;;;4.55;;
64986;SDS011;51532;52.108;9.360;2022-08-05T11:54:33;5.40;;;4.78;;
64986;SDS011;51532;52.108;9.360;2022-08-05T11:57:26;7.78;;;7.07;;
64986;SDS011;51532;52.108;9.360;2022-08-05T12:00:24;8.35;;;7.65;;
64986;SDS011;51532;52.108;9.360;2022-08-05T12:03:15;9.95;;;8.77;;
64986;SDS011;51532;52.108;9.360;2022-08-05T12:06:16;9.48;;;8.57;;
64986;SDS011;51532;52.108;9.360;2022-08-05T12:09:04;8.90;;;8.00;;
64986;SDS011;51532;52.108;9.360;2022-08-05T12:11:50;7.25;;;6.60;;
64986;SDS011;51532;52.108;9.360;2022-08-05T12:14:40;9.10;;;6.82;;
64986;SDS011;51532;52.108;9.360;2022-08-05T12:17:34;5.30;;;4.80;;
64986;SDS011;51532;52.108;9.360;2022-08-05T12:20:39;6.38;;;3.90;;
64986;SDS011;51532;52.108;9.360;2022-08-05T12:23:25;4.63;;;4.05;;
64986;SDS011;51532;52.108;9.360;2022-08-05T12:26:11;4.88;;;3.30;;
64986;SDS011;51532;52.108;9.360;2022-08-05T12:28:56;4.05;;;3.75;;
64986;SDS011;51532;52.108;9.360;2022-08-05T12:31:46;4.28;;;3.80;;
64986;SDS011;51532;52.108;9.360;2022-08-05T12:34:38;4.50;;;4.10;;
64986;SDS011;51532;52.108;9.360;2022-08-05T12:37:23;6.60;;;4.40;;
64986;SDS011;51532;52.108;9.360;2022-08-05T12:40:14;5.43;;;4.90;;
64986;SDS011;51532;52.108;9.360;2022-08-05T12:43:12;11.27;;;7.93;;
64986;SDS011;51532;52.108;9.360;2022-08-05T12:46:05;7.35;;;5.78;;
64986;SDS011;51532;52.108;9.360;2022-08-05T12:49:06;6.75;;;4.47;;
64986;SDS011;51532;52.108;9.360;2022-08-05T12:51:59;5.75;;;5.25;;
64986;SDS011;51532;52.108;9.360;2022-08-05T12:55:18;7.75;;;6.45;;
64986;SDS011;51532;52.108;9.360;2022-08-05T12:58:07;10.75;;;9.45;;
64986;SDS011;51532;52.108;9.360;2022-08-05T13:01:12;4.57;;;3.38;;
64986;SDS011;51532;52.108;9.360;2022-08-05T13:04:19;7.38;;;4.32;;
64986;SDS011;51532;52.108;9.360;2022-08-05T13:07:06;14.43;;;9.65;;
64986;SDS011;51532;52.108;9.360;2022-08-05T13:10:01;5.60;;;4.57;;
64986;SDS011;51532;52.108;9.360;2022-08-05T13:12:46;3.03;;;2.67;;
64986;SDS011;51532;52.108;9.360;2022-08-05T13:15:41;4.88;;;3.60;;
64986;SDS011;51532;52.108;9.360;2022-08-05T13:18:37;5.45;;;4.88;;
64986;SDS011;51532;52.108;9.360;2022-08-05T13:21:23;5.82;;;2.80;;
64986;SDS011;51532;52.108;9.360;2022-08-05T13:24:22;3.70;;;3.00;;
64986;SDS011;51532;52.108;9.360;2022-08-05T13:27:32;12.80;;;6.25;;
64986;SDS011;51532;52.108;9.360;2022-08-05T13:30:23;3.45;;;3.05;;
64986;SDS011;51532;52.108;9.360;2022-08-05T13:33:20;4.90;;;3.65;;
64986;SDS011;51532;52.108;9.360;2022-08-05T13:36:26;4.38;;;2.65;;
64986;SDS011;51532;52.108;9.360;2022-08-05T13:39:12;3.92;;;3.28;;
64986;SDS011;51532;52.108;9.360;2022-08-05T13:42:18;4.18;;;2.92;;
64986;SDS011;51532;52.108;9.360;2022-08-05T13:45:05;4.95;;;2.92;;
64986;SDS011;51532;52.108;9.360;2022-08-05T13:47:53;3.92;;;2.45;;
64986;SDS011;51532;52.108;9.360;2022-08-05T13:51:05;2.80;;;2.60;;
64986;SDS011;51532;52.108;9.360;2022-08-05T13:53:57;5.18;;;2.58;;
64986;SDS011;51532;52.108;9.360;2022-08-05T13:56:45;5.13;;;3.03;;
64986;SDS011;51532;52.108;9.360;2022-08-05T13:59:35;2.40;;;1.80;;
64986;SDS011;51532;52.108;9.360;2022-08-05T14:02:41;5.40;;;2.53;;
64986;SDS011;51532;52.108;9.360;2022-08-05T14:05:27;2.90;;;2.08;;
64986;SDS011;51532;52.108;9.360;2022-08-05T14:08:32;3.20;;;2.40;;
64986;SDS011;51532;52.108;9.360;2022-08-05T14:11:18;2.85;;;2.17;;
64986;SDS011;51532;52.108;9.360;2022-08-05T14:14:06;3.53;;;2.10;;
64986;SDS011;51532;52.108;9.360;2022-08-05T14:16:52;2.42;;;2.17;;
64986;SDS011;51532;52.108;9.360;2022-08-05T14:19:41;2.63;;;2.10;;
64986;SDS011;51532;52.108;9.360;2022-08-05T14:22:40;2.55;;;2.17;;
64986;SDS011;51532;52.108;9.360;2022-08-05T14:25:34;2.70;;;1.90;;
64986;SDS011;51532;52.108;9.360;2022-08-05T14:28:29;4.25;;;2.40;;
64986;SDS011;51532;52.108;9.360;2022-08-05T14:31:14;2.40;;;2.10;;
64986;SDS011;51532;52.108;9.360;2022-08-05T14:34:20;3.38;;;2.50;;
64986;SDS011;51532;52.108;9.360;2022-08-05T14:37:08;3.08;;;2.30;;
64986;SDS011;51532;52.108;9.360;2022-08-05T14:39:57;3.67;;;2.85;;
64986;SDS011;51532;52.108;9.360;2022-08-05T14:42:43;4.72;;;2.67;;
64986;SDS011;51532;52.108;9.360;2022-08-05T14:45:29;3.40;;;2.38;;
64986;SDS011;51532;52.108;9.360;2022-08-05T14:48:15;2.97;;;2.30;;
64986;SDS011;51532;52.108;9.360;2022-08-05T14:51:17;3.95;;;1.92;;
64986;SDS011;51532;52.108;9.360;2022-08-05T14:54:04;2.28;;;2.08;;
64986;SDS011;51532;52.108;9.360;2022-08-05T14:57:10;3.13;;;2.20;;
64986;SDS011;51532;52.108;9.360;2022-08-05T14:59:57;3.63;;;2.42;;
64986;SDS011;51532;52.108;9.360;2022-08-05T15:02:43;3.17;;;2.28;;
64986;SDS011;51532;52.108;9.360;2022-08-05T15:05:29;2.92;;;2.53;;
64986;SDS011;51532;52.108;9.360;2022-08-05T15:08:34;3.85;;;2.70;;
64986;SDS011;51532;52.108;9.360;2022-08-05T15:11:40;4.57;;;2.92;;
64986;SDS011;51532;52.108;9.360;2022-08-05T15:14:37;3.97;;;2.70;;
64986;SDS011;51532;52.108;9.360;2022-08-05T15:17:33;5.53;;;3.20;;
64986;SDS011;51532;52.108;9.360;2022-08-05T15:20:37;5.18;;;2.90;;
64986;SDS011;51532;52.108;9.360;2022-08-05T15:23:22;5.30;;;2.70;;
64986;SDS011;51532;52.108;9.360;2022-08-05T15:26:07;4.28;;;2.70;;
64986;SDS011;51532;52.108;9.360;2022-08-05T15:28:53;5.13;;;2.42;;
64986;SDS011;51532;52.108;9.360;2022-08-05T15:31:39;3.95;;;2.70;;
64986;SDS011;51532;52.108;9.360;2022-08-05T15:34:25;4.22;;;2.80;;
64986;SDS011;51532;52.108;9.360;2022-08-05T15:37:17;9.55;;;3.28;;
64986;SDS011;51532;52.108;9.360;2022-08-05T15:40:22;3.58;;;2.78;;
64986;SDS011;51532;52.108;9.360;2022-08-05T15:43:28;4.28;;;2.50;;
64986;SDS011;51532;52.108;9.360;2022-08-05T15:46:29;3.03;;;2.35;;
64986;SDS011;51532;52.108;9.360;2022-08-05T15:49:14;3.45;;;2.22;;
64986;SDS011;51532;52.108;9.360;2022-08-05T15:52:19;3.15;;;2.33;;
64986;SDS011;51532;52.108;9.360;2022-08-05T15:55:26;3.53;;;2.45;;
64986;SDS011;51532;52.108;9.360;2022-08-05T15:58:31;3.50;;;2.35;;
64986;SDS011;51532;52.108;9.360;2022-08-05T16:01:20;2.72;;;2.00;;
64986;SDS011;51532;52.108;9.360;2022-08-05T16:04:13;3.05;;;2.40;;
64986;SDS011;51532;52.108;9.360;2022-08-05T16:07:01;3.47;;;2.63;;
64986;SDS011;51532;52.108;9.360;2022-08-05T16:09:49;3.60;;;2.53;;
64986;SDS011;51532;52.108;9.360;2022-08-05T16:12:38;3.08;;;2.22;;
64986;SDS011;51532;52.108;9.360;2022-08-05T16:15:23;2.72;;;2.20;;
64986;SDS011;51532;52.108;9.360;2022-08-05T16:18:17;4.68;;;2.30;;
64986;SDS011;51532;52.108;9.360;2022-08-05T16:21:03;2.65;;;2.08;;
64986;SDS011;51532;52.108;9.360;2022-08-05T16:23:49;2.55;;;2.13;;
64986;SDS011;51532;52.108;9.360;2022-08-05T16:29:40;5.07;;;2.30;;
64986;SDS011;51532;52.108;9.360;2022-08-05T16:32:34;3.65;;;2.30;;
64986;SDS011;51532;52.108;9.360;2022-08-05T16:35:20;3.38;;;2.33;;
64986;SDS011;51532;52.108;9.360;2022-08-05T16:38:14;3.65;;;2.30;;
64986;SDS011;51532;52.108;9.360;2022-08-05T16:41:11;4.95;;;2.47;;
64986;SDS011;51532;52.108;9.360;2022-08-05T16:44:18;3.03;;;2.72;;
64986;SDS011;51532;52.108;9.360;2022-08-05T16:47:08;4.05;;;2.42;;
64986;SDS011;51532;52.108;9.360;2022-08-05T16:50:14;4.78;;;2.80;;
64986;SDS011;51532;52.108;9.360;2022-08-05T16:53:01;3.13;;;2.78;;
64986;SDS011;51532;52.108;9.360;2022-08-05T16:55:56;3.60;;;2.50;;
64986;SDS011;51532;52.108;9.360;2022-08-05T16:58:42;4.50;;;2.47;;
64986;SDS011;51532;52.108;9.360;2022-08-05T17:01:28;3.10;;;2.30;;
64986;SDS011;51532;52.108;9.360;2022-08-05T17:04:33;2.65;;;2.30;;
64986;SDS011;51532;52.108;9.360;2022-08-05T17:07:24;3.50;;;2.47;;
64986;SDS011;51532;52.108;9.360;2022-08-05T17:10:29;3.45;;;2.60;;
64986;SDS011;51532;52.108;9.360;2022-08-05T17:13:15;3.45;;;2.25;;
64986;SDS011;51532;52.108;9.360;2022-08-05T17:16:20;5.18;;;2.55;;
64986;SDS011;51532;52.108;9.360;2022-08-05T17:19:17;3.88;;;2.50;;
64986;SDS011;51532;52.108;9.360;2022-08-05T17:22:03;2.90;;;2.10;;
64986;SDS011;51532;52.108;9.360;2022-08-05T17:24:49;2.92;;;2.10;;
64986;SDS011;51532;52.108;9.360;2022-08-05T17:27:42;4.70;;;2.35;;
64986;SDS011;51532;52.108;9.360;2022-08-05T17:30:27;2.90;;;1.95;;
64986;SDS011;51532;52.108;9.360;2022-08-05T17:33:13;1.58;;;1.10;;
64986;SDS011;51532;52.108;9.360;2022-08-05T17:35:58;1.75;;;1.00;;
64986;SDS011;51532;52.108;9.360;2022-08-05T17:38:53;2.60;;;1.00;;
64986;SDS011;51532;52.108;9.360;2022-08-05T17:41:39;1.10;;;0.80;;
64986;SDS011;51532;52.108;9.360;2022-08-05T17:44:45;1.23;;;0.80;;
64986;SDS011;51532;52.108;9.360;2022-08-05T17:47:35;0.98;;;0.80;;
64986;SDS011;51532;52.108;9.360;2022-08-05T17:50:23;2.33;;;1.17;;
64986;SDS011;51532;52.108;9.360;2022-08-05T17:53:14;2.10;;;0.70;;